createdAt,value
2018-06-15T00:00:20.031Z,13.70
2018-06-15T00:02:54.405Z,14.83
2018-06-15T00:05:23.521Z,13.87
2018-06-15T00:07:53.230Z,17.93
2018-06-15T00:10:22.373Z,13.30
2018-06-15T00:12:51.481Z,13.63
2018-06-15T00:15:20.591Z,15.03
2018-06-15T00:17:49.708Z,14.67
2018-06-15T00:20:18.825Z,12.87
2018-06-15T00:22:47.929Z,15.90
2018-06-15T00:25:17.041Z,14.60
2018-06-15T00:27:46.156Z,13.47
2018-06-15T00:30:15.258Z,13.60
2018-06-15T00:32:44.377Z,13.77
2018-06-15T00:35:13.474Z,15.90
2018-06-15T00:37:42.584Z,15.27
2018-06-15T00:40:11.686Z,17.50
2018-06-15T00:42:40.809Z,13.93
2018-06-15T00:45:09.907Z,15.93
2018-06-15T00:47:39.022Z,17.63
2018-06-15T00:50:08.125Z,14.70
2018-06-15T00:52:37.246Z,16.30
2018-06-15T00:55:06.583Z,17.40
2018-06-15T00:57:44.133Z,15.23
2018-06-15T01:00:13.226Z,15.77
2018-06-15T01:02:42.365Z,20.80
2018-06-15T01:05:11.513Z,19.37
2018-06-15T01:07:40.644Z,16.80
2018-06-15T01:10:09.785Z,14.57
2018-06-15T01:12:38.893Z,16.73
2018-06-15T01:15:08.030Z,20.83
2018-06-15T01:17:37.521Z,15.47
2018-06-15T01:20:07.198Z,15.10
2018-06-15T01:22:36.423Z,16.80
2018-06-15T01:25:05.617Z,13.37
2018-06-15T01:27:34.817Z,17.57
2018-06-15T01:30:03.985Z,16.17
2018-06-15T01:32:33.081Z,18.10
2018-06-15T01:35:02.177Z,16.83
2018-06-15T01:37:31.289Z,16.70
2018-06-15T01:40:00.413Z,18.07
2018-06-15T01:42:29.526Z,16.70
2018-06-15T01:44:58.641Z,16.03
2018-06-15T01:47:27.777Z,14.77
2018-06-15T01:49:56.903Z,17.20
2018-06-15T01:52:26.034Z,15.40
2018-06-15T01:54:55.124Z,16.23
2018-06-15T01:57:24.278Z,13.00
2018-06-15T01:59:53.385Z,14.97
2018-06-15T02:02:22.507Z,16.00
2018-06-15T02:04:51.609Z,17.23
2018-06-15T02:07:20.705Z,15.90
2018-06-15T02:09:50.057Z,15.30
2018-06-15T02:12:19.169Z,16.53
2018-06-15T02:14:48.272Z,13.23
2018-06-15T02:17:17.481Z,11.43
2018-06-15T02:19:46.557Z,14.07
2018-06-15T02:22:15.741Z,15.17
2018-06-15T02:24:44.865Z,14.67
2018-06-15T02:27:13.985Z,13.33
2018-06-15T02:29:43.081Z,14.43
2018-06-15T02:32:12.193Z,14.73
2018-06-15T02:34:41.295Z,12.77
2018-06-15T02:37:10.394Z,14.47
2018-06-15T02:39:39.525Z,13.40
2018-06-15T02:42:08.655Z,14.13
2018-06-15T02:44:37.756Z,17.33
2018-06-15T02:47:06.855Z,14.87
2018-06-15T02:49:35.965Z,15.37
2018-06-15T02:52:05.110Z,13.43
2018-06-15T02:54:34.212Z,12.47
2018-06-15T02:57:03.317Z,13.40
2018-06-15T02:59:32.482Z,12.80
2018-06-15T03:02:01.591Z,11.83
2018-06-15T03:04:30.712Z,13.73
2018-06-15T03:06:59.833Z,14.17
2018-06-15T03:09:28.942Z,12.87
2018-06-15T03:11:58.085Z,12.33
2018-06-15T03:14:27.186Z,15.27
2018-06-15T03:16:56.405Z,14.33
2018-06-15T03:19:25.517Z,13.10
2018-06-15T03:21:54.617Z,14.50
2018-06-15T03:24:23.724Z,14.30
2018-06-15T03:26:52.837Z,14.57
2018-06-15T03:29:21.930Z,13.13
2018-06-15T03:31:51.052Z,14.30
2018-06-15T03:34:20.158Z,13.40
2018-06-15T03:36:49.256Z,16.87
2018-06-15T03:39:18.357Z,14.23
2018-06-15T03:41:47.468Z,15.97
2018-06-15T03:44:16.601Z,14.53
2018-06-15T03:46:45.730Z,14.27
2018-06-15T03:49:14.866Z,15.07
2018-06-15T03:51:44.006Z,14.77
2018-06-15T03:54:13.130Z,12.97
2018-06-15T03:56:42.239Z,16.30
2018-06-15T03:59:11.466Z,20.50
2018-06-15T04:01:40.570Z,20.03
2018-06-15T04:04:09.704Z,13.90
2018-06-15T04:06:38.809Z,13.37
2018-06-15T04:09:09.581Z,12.20
2018-06-15T04:11:39.068Z,15.17
2018-06-15T04:14:08.198Z,16.07
2018-06-15T04:16:37.341Z,14.70
2018-06-15T04:19:06.541Z,14.87
2018-06-15T04:21:35.659Z,18.67
2018-06-15T04:24:04.767Z,13.90
2018-06-15T04:26:33.929Z,15.63
2018-06-15T04:29:03.061Z,15.57
2018-06-15T04:31:32.213Z,16.57
2018-06-15T04:34:01.317Z,17.67
2018-06-15T04:36:30.493Z,16.63
2018-06-15T04:38:59.658Z,19.03
2018-06-15T04:41:28.846Z,16.63
2018-06-15T04:43:58.041Z,13.07
2018-06-15T04:46:27.117Z,13.80
2018-06-15T04:48:56.253Z,15.00
2018-06-15T04:51:25.343Z,15.90
2018-06-15T04:53:54.448Z,13.60
2018-06-15T04:56:23.581Z,16.37
2018-06-15T04:58:52.637Z,15.23
2018-06-15T05:01:21.753Z,15.43
2018-06-15T05:03:50.853Z,15.97
2018-06-15T05:06:20.061Z,16.63
2018-06-15T05:08:49.174Z,13.43
2018-06-15T05:11:18.277Z,16.60
2018-06-15T05:13:47.374Z,15.90
2018-06-15T05:16:16.493Z,15.40
2018-06-15T05:18:45.663Z,17.47
2018-06-15T05:21:15.146Z,16.20
2018-06-15T05:23:44.229Z,18.47
2018-06-15T05:26:13.365Z,15.73
2018-06-15T05:28:42.511Z,15.77
2018-06-15T05:31:11.617Z,12.50
2018-06-15T05:33:40.734Z,15.03
2018-06-15T05:36:09.849Z,16.30
2018-06-15T05:38:38.945Z,14.43
2018-06-15T05:41:08.042Z,17.23
2018-06-15T05:43:37.181Z,18.23
2018-06-15T05:46:06.290Z,16.40
2018-06-15T05:48:35.490Z,16.87
2018-06-15T05:51:04.582Z,15.57
2018-06-15T05:53:33.690Z,13.20
2018-06-15T05:56:02.814Z,15.37
2018-06-15T05:58:31.925Z,15.60
2018-06-15T06:01:01.130Z,18.00
2018-06-15T06:03:30.250Z,15.37
2018-06-15T06:05:59.382Z,16.50
2018-06-15T06:08:28.678Z,14.33
2018-06-15T06:10:57.798Z,20.83
2018-06-15T06:13:26.974Z,15.43
2018-06-15T06:15:56.077Z,16.70
2018-06-15T06:18:25.167Z,16.33
2018-06-15T06:20:54.309Z,17.07
2018-06-15T06:23:23.443Z,15.33
2018-06-15T06:25:52.617Z,16.27
2018-06-15T06:28:21.729Z,15.03
2018-06-15T06:30:50.841Z,16.87
2018-06-15T06:33:19.945Z,14.43
2018-06-15T06:35:49.086Z,15.30
2018-06-15T06:38:18.230Z,15.80
2018-06-15T06:40:47.349Z,22.17
2018-06-15T06:43:16.477Z,20.77
2018-06-15T06:45:45.578Z,16.40
2018-06-15T06:48:14.685Z,15.47
2018-06-15T06:50:43.794Z,19.50
2018-06-15T06:53:12.917Z,18.33
2018-06-15T06:55:42.018Z,17.40
2018-06-15T06:58:11.229Z,20.60
2018-06-15T07:00:40.581Z,18.87
2018-06-15T07:03:09.689Z,17.40
2018-06-15T07:05:38.797Z,18.73
2018-06-15T07:08:07.894Z,18.97
2018-06-15T07:10:36.993Z,20.57
2018-06-15T07:13:06.130Z,18.20
2018-06-15T07:15:35.237Z,17.93
2018-06-15T07:18:04.343Z,16.33
2018-06-15T07:20:33.535Z,17.57
2018-06-15T07:23:02.721Z,16.53
2018-06-15T07:25:31.831Z,18.13
2018-06-15T07:28:00.940Z,18.10
2018-06-15T07:30:30.061Z,17.13
2018-06-15T07:32:59.169Z,16.53
2018-06-15T07:35:28.333Z,14.27
2018-06-15T07:37:57.431Z,14.10
2018-06-15T07:40:26.577Z,15.30
2018-06-15T07:42:55.681Z,18.40
2018-06-15T07:45:24.773Z,15.03
2018-06-15T07:47:53.883Z,17.10
2018-06-15T07:50:22.986Z,18.00
2018-06-15T07:52:52.186Z,13.67
2018-06-15T07:55:21.306Z,14.33
2018-06-15T07:57:50.417Z,14.17
2018-06-15T08:00:19.502Z,14.17
2018-06-15T08:02:48.621Z,15.97
2018-06-15T08:05:17.725Z,17.33
2018-06-15T08:07:46.841Z,17.10
2018-06-15T08:10:16.067Z,15.33
2018-06-15T08:12:45.117Z,16.30
2018-06-15T08:15:14.265Z,14.70
2018-06-15T08:17:43.402Z,15.50
2018-06-15T08:20:12.541Z,15.10
2018-06-15T08:22:41.634Z,14.23
2018-06-15T08:25:10.768Z,14.97
2018-06-15T08:27:39.875Z,17.57
2018-06-15T08:30:08.969Z,15.00
2018-06-15T08:32:38.101Z,13.27
2018-06-15T08:35:07.219Z,12.63
2018-06-15T08:37:36.353Z,15.30
2018-06-15T08:40:05.513Z,14.47
2018-06-15T08:42:34.703Z,12.93
2018-06-15T08:45:03.921Z,15.07
2018-06-15T08:47:33.021Z,13.50
2018-06-15T08:50:02.137Z,11.97
2018-06-15T08:52:31.275Z,13.53
2018-06-15T08:55:00.422Z,14.10
2018-06-15T08:57:29.518Z,14.33
2018-06-15T08:59:58.701Z,13.30
2018-06-15T09:02:27.843Z,12.73
2018-06-15T09:04:56.985Z,13.73
2018-06-15T09:07:27.049Z,12.80
2018-06-15T09:09:56.165Z,12.10
2018-06-15T09:12:25.486Z,14.67
2018-06-15T09:14:54.612Z,12.57
2018-06-15T09:17:23.708Z,12.20
2018-06-15T09:19:52.849Z,11.13
2018-06-15T09:22:21.952Z,10.53
2018-06-15T09:24:51.428Z,11.53
2018-06-15T09:27:20.525Z,10.90
2018-06-15T09:29:49.633Z,13.20
2018-06-15T09:32:18.741Z,8.57
2018-06-15T09:34:47.913Z,10.33
2018-06-15T09:37:17.015Z,9.00
2018-06-15T09:39:46.257Z,8.30
2018-06-15T09:42:15.349Z,11.00
2018-06-15T09:44:44.463Z,7.83
2018-06-15T09:47:13.567Z,10.10
2018-06-15T09:49:42.665Z,7.63
2018-06-15T09:52:11.777Z,8.67
2018-06-15T09:54:40.877Z,8.57
2018-06-15T09:57:10.030Z,8.20
2018-06-15T09:59:39.173Z,7.33
2018-06-15T10:02:08.322Z,7.67
2018-06-15T10:04:37.477Z,7.37
2018-06-15T10:07:06.593Z,7.60
2018-06-15T10:09:35.709Z,7.30
2018-06-15T10:12:04.824Z,7.33
2018-06-15T10:14:33.940Z,6.17
2018-06-15T10:17:03.058Z,6.17
2018-06-15T10:19:32.176Z,6.40
2018-06-15T10:22:01.302Z,5.97
2018-06-15T10:24:30.414Z,6.07
2018-06-15T10:26:59.550Z,8.23
2018-06-15T10:29:28.680Z,5.90
2018-06-15T10:31:57.805Z,5.93
2018-06-15T10:34:26.908Z,6.00
2018-06-15T10:36:56.030Z,5.30
2018-06-15T10:39:25.192Z,5.30
2018-06-15T10:41:54.279Z,5.27
2018-06-15T10:44:23.385Z,6.13
2018-06-15T10:46:52.676Z,6.47
2018-06-15T10:49:21.789Z,4.90
2018-06-15T10:51:50.897Z,5.77
2018-06-15T10:54:20.001Z,5.37
2018-06-15T10:56:49.106Z,4.47
2018-06-15T10:59:18.214Z,5.87
2018-06-15T11:01:47.325Z,6.90
2018-06-15T11:04:16.417Z,5.70
2018-06-15T11:06:45.520Z,7.43
2018-06-15T11:09:14.639Z,6.27
2018-06-15T11:11:43.733Z,5.97
2018-06-15T11:14:12.844Z,6.17
2018-06-15T11:16:41.980Z,3.97
2018-06-15T11:19:11.301Z,4.83
2018-06-15T11:21:40.405Z,4.77
2018-06-15T11:24:09.537Z,4.97
2018-06-15T11:26:38.687Z,4.53
2018-06-15T11:29:07.878Z,4.77
2018-06-15T11:31:37.006Z,5.07
2018-06-15T11:34:06.127Z,5.37
2018-06-15T11:36:35.262Z,5.20
2018-06-15T11:39:06.177Z,5.03
2018-06-15T11:41:35.446Z,4.73
2018-06-15T11:44:04.913Z,4.50
2018-06-15T11:46:34.191Z,6.63
2018-06-15T11:49:03.517Z,4.10
2018-06-15T11:51:32.633Z,6.27
2018-06-15T11:54:01.758Z,3.77
2018-06-15T11:56:31.106Z,4.13
2018-06-15T11:59:00.199Z,5.33
2018-06-15T12:01:29.305Z,4.37
2018-06-15T12:03:58.426Z,4.13
2018-06-15T12:06:27.557Z,3.73
2018-06-15T12:08:56.701Z,3.67
2018-06-15T12:11:25.801Z,5.70
2018-06-15T12:13:54.886Z,3.80
2018-06-15T12:16:23.957Z,4.20
2018-06-15T12:18:53.356Z,3.50
2018-06-15T12:21:22.491Z,3.80
2018-06-15T12:23:51.594Z,3.50
2018-06-15T12:26:20.685Z,3.90
2018-06-15T12:28:49.813Z,4.70
2018-06-15T12:31:18.974Z,3.80
2018-06-15T12:33:48.077Z,3.70
2018-06-15T12:36:17.228Z,3.27
2018-06-15T12:38:46.346Z,4.50
2018-06-15T12:41:15.437Z,3.27
2018-06-15T12:43:44.538Z,3.90
2018-06-15T12:46:13.689Z,4.00
2018-06-15T12:48:42.838Z,4.20
2018-06-15T12:51:11.925Z,3.57
2018-06-15T12:53:41.065Z,3.50
2018-06-15T12:56:10.182Z,3.60
2018-06-15T12:58:39.294Z,3.47
2018-06-15T13:01:08.409Z,3.50
2018-06-15T13:03:37.540Z,2.87
2018-06-15T13:06:06.629Z,3.60
2018-06-15T13:08:35.755Z,3.37
2018-06-15T13:11:04.889Z,3.43
2018-06-15T13:13:35.074Z,3.20
2018-06-15T13:16:04.185Z,3.30
2018-06-15T13:18:33.502Z,7.20
2018-06-15T13:21:02.715Z,3.50
2018-06-15T13:23:31.911Z,3.17
2018-06-15T13:26:01.108Z,3.93
2018-06-15T13:28:30.215Z,5.33
2018-06-15T13:30:59.373Z,5.43
2018-06-15T13:33:28.545Z,3.30
2018-06-15T13:35:58.658Z,3.70
2018-06-15T13:38:27.775Z,3.83
2018-06-15T13:40:56.889Z,3.07
2018-06-15T13:43:25.992Z,3.20
2018-06-15T13:45:55.133Z,3.30
2018-06-15T13:48:24.225Z,3.77
2018-06-15T13:50:53.318Z,3.10
2018-06-15T13:53:22.396Z,3.10
2018-06-15T13:55:51.506Z,4.60
2018-06-15T13:58:20.646Z,3.37
2018-06-15T14:00:49.767Z,2.83
2018-06-15T14:03:18.945Z,3.00
2018-06-15T14:05:48.058Z,2.90
2018-06-15T14:08:17.194Z,4.27
2018-06-15T14:10:46.266Z,4.07
2018-06-15T14:13:15.373Z,4.83
2018-06-15T14:15:44.476Z,5.40
2018-06-15T14:18:13.564Z,2.90
2018-06-15T14:20:42.658Z,3.70
2018-06-15T14:23:11.785Z,4.47
2018-06-15T14:25:40.870Z,4.90
2018-06-15T14:28:10.050Z,4.67
2018-06-15T14:30:39.401Z,5.37
2018-06-15T14:33:08.505Z,3.60
2018-06-15T14:35:37.621Z,3.77
2018-06-15T14:38:06.706Z,4.40
2018-06-15T14:40:35.837Z,2.63
2018-06-15T14:43:04.918Z,3.73
2018-06-15T14:45:34.025Z,2.40
2018-06-15T14:48:03.138Z,2.13
2018-06-15T14:50:32.230Z,2.20
2018-06-15T14:53:01.366Z,2.60
2018-06-15T14:55:31.302Z,2.30
2018-06-15T14:58:00.406Z,2.93
2018-06-15T15:00:29.511Z,3.20
2018-06-15T15:02:58.700Z,2.00
2018-06-15T15:05:27.801Z,2.10
2018-06-15T15:07:56.975Z,2.37
2018-06-15T15:10:26.185Z,2.43
2018-06-15T15:12:55.398Z,2.40
2018-06-15T15:15:25.018Z,2.23
2018-06-15T15:17:54.346Z,1.97
2018-06-15T15:20:23.446Z,2.60
2018-06-15T15:22:52.619Z,2.00
2018-06-15T15:25:21.790Z,2.00
2018-06-15T15:27:50.895Z,2.07
2018-06-15T15:30:20.010Z,2.70
2018-06-15T15:32:49.105Z,2.10
2018-06-15T15:35:18.194Z,1.87
2018-06-15T15:37:47.309Z,1.87
2018-06-15T15:40:16.401Z,2.33
2018-06-15T15:42:45.589Z,2.03
2018-06-15T15:45:14.697Z,2.20
2018-06-15T15:47:43.787Z,3.30
2018-06-15T15:50:12.933Z,2.30
2018-06-15T15:52:42.073Z,1.93
2018-06-15T15:55:11.186Z,2.47
2018-06-15T15:57:40.306Z,1.93
2018-06-15T16:00:09.430Z,3.53
2018-06-15T16:02:38.537Z,2.70
2018-06-15T16:05:07.673Z,3.20
2018-06-15T16:07:36.769Z,4.73
2018-06-15T16:10:05.901Z,2.40
2018-06-15T16:12:35.009Z,2.50
2018-06-15T16:15:04.157Z,1.80
2018-06-15T16:17:33.261Z,5.20
2018-06-15T16:20:02.373Z,3.97
2018-06-15T16:22:31.506Z,2.53
2018-06-15T16:25:00.603Z,2.17
2018-06-15T16:27:29.735Z,2.37
2018-06-15T16:29:58.857Z,2.23
2018-06-15T16:32:27.986Z,2.47
2018-06-15T16:34:57.354Z,2.53
2018-06-15T16:37:26.965Z,4.87
2018-06-15T16:39:56.131Z,2.53
2018-06-15T16:42:25.245Z,3.73
2018-06-15T16:44:54.328Z,3.80
2018-06-15T16:47:23.473Z,2.87
2018-06-15T16:49:52.602Z,3.63
2018-06-15T16:52:21.686Z,4.40
2018-06-15T16:54:50.806Z,2.93
2018-06-15T16:57:19.922Z,2.33
2018-06-15T16:59:49.033Z,2.00
2018-06-15T17:02:18.139Z,2.33
2018-06-15T17:04:47.244Z,3.90
2018-06-15T17:07:16.333Z,2.33
2018-06-15T17:09:45.490Z,2.90
2018-06-15T17:12:14.590Z,4.47
2018-06-15T17:14:43.674Z,2.70
2018-06-15T17:17:12.816Z,2.60
2018-06-15T17:19:41.945Z,4.63
2018-06-15T17:22:11.058Z,2.67
2018-06-15T17:24:40.178Z,3.40
2018-06-15T17:27:09.295Z,4.53
2018-06-15T17:29:38.382Z,2.80
2018-06-15T17:32:07.515Z,2.77
2018-06-15T17:34:36.621Z,3.57
2018-06-15T17:37:05.996Z,3.03
2018-06-15T17:39:35.110Z,3.40
2018-06-15T17:42:04.237Z,2.97
2018-06-15T17:44:33.436Z,2.87
2018-06-15T17:47:02.478Z,2.53
2018-06-15T17:49:31.633Z,3.00
2018-06-15T17:52:00.743Z,3.50
2018-06-15T17:54:29.841Z,2.87
2018-06-15T17:56:59.069Z,2.83
2018-06-15T17:59:28.194Z,3.47
2018-06-15T18:01:57.298Z,3.37
2018-06-15T18:04:26.412Z,3.50
2018-06-15T18:06:55.505Z,4.00
2018-06-15T18:09:24.598Z,4.90
2018-06-15T18:11:53.718Z,3.77
2018-06-15T18:14:22.794Z,3.40
2018-06-15T18:16:51.890Z,3.97
2018-06-15T18:19:20.997Z,3.53
2018-06-15T18:21:50.157Z,3.60
2018-06-15T18:24:19.305Z,3.40
2018-06-15T18:26:48.476Z,3.97
2018-06-15T18:29:17.583Z,3.07
2018-06-15T18:31:46.798Z,4.87
2018-06-15T18:34:15.994Z,4.30
2018-06-15T18:36:45.327Z,2.97
2018-06-15T18:39:15.157Z,3.70
2018-06-15T18:41:44.525Z,4.40
2018-06-15T18:44:13.659Z,4.30
2018-06-15T18:46:42.761Z,3.73
2018-06-15T18:49:11.936Z,3.47
2018-06-15T18:51:41.016Z,3.63
2018-06-15T18:54:10.137Z,3.67
2018-06-15T18:56:39.232Z,4.03
2018-06-15T18:59:08.374Z,3.63
2018-06-15T19:01:37.548Z,3.57
2018-06-15T19:04:07.165Z,3.60
2018-06-15T19:06:36.270Z,3.40
2018-06-15T19:09:08.029Z,3.87
2018-06-15T19:11:37.133Z,3.47
2018-06-15T19:14:06.280Z,3.20
2018-06-15T19:16:35.403Z,4.63
2018-06-15T19:19:04.497Z,3.70
2018-06-15T19:21:33.573Z,4.37
2018-06-15T19:24:02.729Z,3.50
2018-06-15T19:26:31.924Z,3.63
2018-06-15T19:29:01.076Z,3.57
2018-06-15T19:31:30.177Z,5.30
2018-06-15T19:33:59.262Z,3.40
2018-06-15T19:36:28.349Z,4.10
2018-06-15T19:38:57.453Z,3.73
2018-06-15T19:41:26.564Z,3.87
2018-06-15T19:43:55.650Z,4.47
2018-06-15T19:46:24.801Z,3.83
2018-06-15T19:48:53.950Z,4.57
2018-06-15T19:51:23.070Z,4.20
2018-06-15T19:53:52.210Z,5.00
2018-06-15T19:56:21.318Z,4.53
2018-06-15T19:58:50.443Z,6.40
2018-06-15T20:01:19.595Z,4.43
2018-06-15T20:03:48.677Z,5.30
2018-06-15T20:06:17.761Z,4.43
2018-06-15T20:08:46.925Z,8.70
2018-06-15T20:11:16.122Z,5.07
2018-06-15T20:13:45.317Z,3.70
2018-06-15T20:16:14.460Z,4.43
2018-06-15T20:18:43.685Z,5.00
2018-06-15T20:21:12.937Z,3.50
2018-06-15T20:23:42.102Z,5.37
2018-06-15T20:26:11.206Z,5.13
2018-06-15T20:28:40.344Z,5.30
2018-06-15T20:31:11.283Z,4.03
2018-06-15T20:33:40.435Z,3.90
2018-06-15T20:36:09.699Z,4.43
2018-06-15T20:38:38.761Z,4.33
2018-06-15T20:41:07.978Z,4.37
2018-06-15T20:43:37.197Z,3.60
2018-06-15T20:46:06.301Z,5.23
2018-06-15T20:48:35.397Z,4.40
2018-06-15T20:51:04.541Z,5.20
2018-06-15T20:53:33.698Z,4.43
2018-06-15T20:56:02.785Z,5.77
2018-06-15T20:58:32.044Z,4.30
2018-06-15T21:01:01.138Z,4.10
2018-06-15T21:03:30.233Z,4.33
2018-06-15T21:05:59.382Z,5.10
2018-06-15T21:08:28.485Z,4.10
2018-06-15T21:10:57.605Z,6.97
2018-06-15T21:13:26.697Z,4.67
2018-06-15T21:15:55.819Z,6.03
2018-06-15T21:18:24.981Z,4.87
2018-06-15T21:20:54.572Z,4.47
2018-06-15T21:23:23.742Z,6.20
2018-06-15T21:25:52.853Z,5.97
2018-06-15T21:28:22.081Z,8.73
2018-06-15T21:30:51.538Z,6.60
2018-06-15T21:33:20.749Z,9.63
2018-06-15T21:35:49.925Z,5.73
2018-06-15T21:38:19.042Z,6.53
2018-06-15T21:40:48.145Z,7.57
2018-06-15T21:43:17.262Z,7.33
2018-06-15T21:45:46.394Z,6.60
2018-06-15T21:48:15.665Z,7.10
2018-06-15T21:50:44.766Z,6.97
2018-06-15T21:53:13.852Z,5.23
2018-06-15T21:55:42.963Z,6.83
2018-06-15T21:58:12.078Z,9.00
2018-06-15T22:00:41.318Z,5.10
2018-06-15T22:03:10.450Z,5.30
2018-06-15T22:05:39.559Z,7.53
2018-06-15T22:08:08.681Z,5.27
2018-06-15T22:10:37.833Z,8.07
2018-06-15T22:13:07.066Z,6.10
2018-06-15T22:15:36.195Z,8.87
2018-06-15T22:18:05.470Z,6.70
2018-06-15T22:20:34.634Z,6.63
2018-06-15T22:23:03.781Z,5.47
2018-06-15T22:25:32.885Z,6.13
2018-06-15T22:28:01.994Z,9.13
2018-06-15T22:30:31.090Z,5.63
2018-06-15T22:33:00.182Z,4.93
2018-06-15T22:35:29.289Z,6.63
2018-06-15T22:37:58.385Z,6.07
2018-06-15T22:40:27.473Z,5.30
2018-06-15T22:42:56.580Z,4.77
2018-06-15T22:45:25.665Z,6.30
2018-06-15T22:47:54.762Z,6.47
2018-06-15T22:50:23.893Z,5.97
2018-06-15T22:52:53.028Z,6.20
2018-06-15T22:55:22.109Z,6.60
2018-06-15T22:57:51.301Z,8.17
2018-06-15T23:00:24.261Z,5.43
2018-06-15T23:02:53.357Z,8.87
2018-06-15T23:05:22.650Z,7.37
2018-06-15T23:07:51.867Z,7.87
2018-06-15T23:10:21.031Z,6.17
2018-06-15T23:12:50.260Z,10.50
2018-06-15T23:15:19.346Z,5.93
2018-06-15T23:17:48.450Z,6.03
2018-06-15T23:20:17.553Z,5.27
2018-06-15T23:22:46.672Z,4.53
2018-06-15T23:25:15.781Z,5.50
2018-06-15T23:27:44.876Z,4.53
2018-06-15T23:30:14.012Z,4.87
2018-06-15T23:32:43.127Z,7.70
2018-06-15T23:35:12.213Z,4.63
2018-06-15T23:37:41.333Z,5.27
2018-06-15T23:40:10.474Z,6.13
2018-06-15T23:42:39.601Z,4.80
2018-06-15T23:45:08.697Z,6.60
2018-06-15T23:47:37.893Z,5.43
2018-06-15T23:50:07.504Z,6.50
2018-06-15T23:52:36.614Z,6.50
2018-06-15T23:55:05.859Z,7.37
2018-06-15T23:57:34.969Z,6.40
